Time;durP1;ratioP1;P1;durP2;ratioP2;P2;SDS_P1;SDS_P2;PMS_P1;PMS_P2;Temp;Humidity;BMP_temperature;BMP_pressure;BME280_temperature;BME280_humidity;BME280_pressure;Samples;Min_cycle;Max_cycle;Signal;HPM_P1;HPM_P2
2023/08/24 00:02:06;;;;;;;14.02;6.45;;;16.40;99.90;;;;;;5046207;28;20045;-70
2023/08/24 00:04:32;;;;;;;12.70;6.70;;;16.40;99.90;;;;;;5061383;28;20074;-70
2023/08/24 00:06:57;;;;;;;8.48;4.88;;;16.40;99.90;;;;;;5060868;28;21213;-70
2023/08/24 00:09:23;;;;;;;9.20;4.53;;;16.30;99.90;;;;;;5032829;28;20055;-71
2023/08/24 00:11:49;;;;;;;12.02;5.03;;;16.30;99.90;;;;;;5049323;28;20071;-70
2023/08/24 00:14:15;;;;;;;9.70;5.40;;;16.30;99.90;;;;;;5038912;28;20156;-70
2023/08/24 00:16:42;;;;;;;7.95;4.45;;;16.30;99.90;;;;;;5042040;28;20183;-70
2023/08/24 00:19:07;;;;;;;;;;;16.30;99.90;;;;;;5063395;28;20418;-70
2023/08/24 00:21:33;;;;;;;8.95;4.25;;;16.30;99.90;;;;;;5066713;28;19920;-70
2023/08/24 00:23:59;;;;;;;6.63;4.10;;;16.30;99.90;;;;;;5035574;28;20064;-71
2023/08/24 00:26:25;;;;;;;;;;;16.30;99.90;;;;;;5045399;28;20098;-70
2023/08/24 00:28:51;;;;;;;9.63;4.55;;;16.30;99.90;;;;;;5069006;28;20323;-70
2023/08/24 00:31:16;;;;;;;9.35;4.20;;;16.20;99.90;;;;;;5040189;28;20058;-71
2023/08/24 00:33:42;;;;;;;9.32;5.70;;;16.30;99.90;;;;;;5046972;28;20083;-70
2023/08/24 00:36:08;;;;;;;7.03;4.97;;;16.30;99.90;;;;;;5045456;28;20115;-70
2023/08/24 00:38:33;;;;;;;9.25;5.00;;;16.30;99.90;;;;;;5047079;28;20084;-70
2023/08/24 00:41:02;;;;;;;7.43;4.60;;;16.30;99.90;;;;;;5046854;28;20042;-71
2023/08/24 00:43:28;;;;;;;9.02;5.10;;;16.30;99.90;;;;;;5031292;28;20044;-71
2023/08/24 00:45:58;;;;;;;9.25;5.65;;;16.30;99.90;;;;;;5025518;28;20200;-70
2023/08/24 00:48:33;;;;;;;11.52;5.80;;;16.30;99.90;;;;;;5040430;28;20052;-70
2023/08/24 00:51:01;;;;;;;11.30;5.40;;;16.30;99.90;;;;;;5050906;28;20436;-70
2023/08/24 00:53:29;;;;;;;9.18;5.72;;;16.30;99.90;;;;;;5045535;28;20063;-70
2023/08/24 00:55:58;;;;;;;10.18;5.75;;;16.30;99.90;;;;;;5045912;28;20045;-70
2023/08/24 00:58:24;;;;;;;12.18;5.97;;;16.30;99.90;;;;;;5064564;28;20082;-70
2023/08/24 01:00:52;;;;;;;10.43;5.78;;;16.30;99.90;;;;;;5047336;28;20048;-70
2023/08/24 01:03:18;;;;;;;8.57;5.50;;;16.30;99.90;;;;;;5041156;28;20506;-70
2023/08/24 01:05:47;;;;;;;9.50;6.07;;;16.30;99.90;;;;;;5036493;28;20289;-70
2023/08/24 01:08:13;;;;;;;10.85;5.80;;;16.30;99.90;;;;;;5058580;28;20063;-70
2023/08/24 01:10:44;;;;;;;;;;;16.30;99.90;;;;;;5047387;28;20039;-70
2023/08/24 01:13:13;;;;;;;8.40;5.22;;;16.30;99.90;;;;;;5049480;28;19974;-70
2023/08/24 01:15:55;;;;;;;8.10;5.00;;;16.30;99.90;;;;;;5063093;28;20044;-70
2023/08/24 01:18:23;;;;;;;12.95;5.15;;;16.30;99.90;;;;;;5042887;28;20052;-70
2023/08/24 01:20:49;;;;;;;9.95;5.13;;;16.30;99.90;;;;;;5052179;28;20048;-71
2023/08/24 01:23:27;;;;;;;9.05;5.18;;;16.30;99.90;;;;;;5047082;28;20127;-71
2023/08/24 01:26:09;;;;;;;9.00;5.00;;;16.30;99.90;;;;;;5045591;28;20052;-70
2023/08/24 01:28:35;;;;;;;10.07;5.35;;;16.30;99.90;;;;;;5030142;28;20250;-70
2023/08/24 01:31:03;;;;;;;9.13;5.35;;;16.30;99.90;;;;;;5044672;28;20056;-70
2023/08/24 01:33:29;;;;;;;8.70;5.45;;;16.30;99.90;;;;;;5043434;28;20203;-71
2023/08/24 01:35:55;;;;;;;10.38;5.43;;;16.40;99.90;;;;;;5044102;28;20040;-71
2023/08/24 01:38:20;;;;;;;7.50;4.63;;;16.30;99.90;;;;;;5056271;28;20053;-70
2023/08/24 01:41:14;;;;;;;14.00;5.10;;;16.40;99.90;;;;;;5046020;28;20032;-70
2023/08/24 01:43:42;;;;;;;10.07;5.15;;;16.40;99.90;;;;;;5048717;28;20123;-71
2023/08/24 01:46:08;;;;;;;6.78;4.45;;;16.40;99.90;;;;;;5046834;28;20127;-70
2023/08/24 01:48:34;;;;;;;8.93;4.57;;;16.50;99.90;;;;;;5054214;28;20203;-70
2023/08/24 01:51:02;;;;;;;7.38;4.90;;;16.50;99.90;;;;;;5065992;28;20190;-70
2023/08/24 01:53:29;;;;;;;10.20;5.28;;;16.50;99.90;;;;;;5038989;28;20049;-71
2023/08/24 01:55:55;;;;;;;12.75;4.45;;;16.50;99.90;;;;;;5047635;28;20127;-70
2023/08/24 01:58:21;;;;;;;11.38;4.93;;;16.50;99.90;;;;;;5066134;28;20243;-70
2023/08/24 02:00:49;;;;;;;7.20;4.60;;;16.50;99.90;;;;;;5048367;28;20526;-71
2023/08/24 02:03:14;;;;;;;6.72;4.03;;;16.50;99.90;;;;;;5038953;28;20103;-70
2023/08/24 02:05:40;;;;;;;10.50;4.70;;;16.50;99.90;;;;;;5039923;28;20089;-71
2023/08/24 02:08:06;;;;;;;8.68;4.35;;;16.50;99.90;;;;;;5046701;28;20044;-70
2023/08/24 02:10:32;;;;;;;11.75;4.47;;;16.50;99.90;;;;;;5067605;28;20040;-71
2023/08/24 02:12:57;;;;;;;10.15;4.18;;;16.50;99.90;;;;;;5047579;28;20494;-70
2023/08/24 02:15:23;;;;;;;9.98;4.50;;;16.50;99.90;;;;;;5047617;28;20751;-70
2023/08/24 02:17:49;;;;;;;10.38;4.45;;;16.50;99.90;;;;;;5046812;28;20094;-70
2023/08/24 02:20:14;;;;;;;7.85;4.63;;;16.50;99.90;;;;;;5049050;28;20394;-71
2023/08/24 02:22:40;;;;;;;7.93;4.20;;;16.50;99.90;;;;;;5046971;28;20052;-71
2023/08/24 02:25:07;;;;;;;11.05;4.97;;;16.50;99.90;;;;;;5042893;28;20040;-70
2023/08/24 02:27:33;;;;;;;12.18;4.82;;;16.50;99.90;;;;;;5043389;28;20049;-71
2023/08/24 02:29:58;;;;;;;6.72;4.13;;;16.50;99.90;;;;;;5046157;28;20087;-70
2023/08/24 02:32:24;;;;;;;9.43;4.30;;;16.50;99.90;;;;;;5044637;28;20044;-70
2023/08/24 02:34:50;;;;;;;7.25;4.43;;;16.50;99.90;;;;;;5049515;28;20079;-70
2023/08/24 02:37:15;;;;;;;8.77;4.60;;;16.40;99.90;;;;;;5058491;28;20044;-70
2023/08/24 02:39:41;;;;;;;7.18;4.05;;;16.50;99.90;;;;;;5049222;28;20609;-70
2023/08/24 02:42:07;;;;;;;7.65;4.20;;;16.50;99.90;;;;;;5042538;28;20111;-70
2023/08/24 02:44:32;;;;;;;7.88;4.32;;;16.50;99.90;;;;;;5027899;28;20045;-71
2023/08/24 02:46:58;;;;;;;7.53;4.32;;;16.50;99.90;;;;;;5047265;28;20049;-71
2023/08/24 02:49:24;;;;;;;12.57;4.97;;;16.50;99.90;;;;;;5048339;28;20045;-71
2023/08/24 02:51:49;;;;;;;6.65;4.20;;;16.50;99.90;;;;;;5061586;28;20049;-71
2023/08/24 02:54:15;;;;;;;6.65;4.60;;;16.50;99.90;;;;;;5050107;28;20041;-71
2023/08/24 02:56:41;;;;;;;11.18;4.80;;;16.50;99.90;;;;;;5046200;28;20036;-71
2023/08/24 02:59:07;;;;;;;9.77;4.00;;;16.50;99.90;;;;;;5043013;28;20052;-70
2023/08/24 03:01:32;;;;;;;8.35;4.03;;;16.40;99.90;;;;;;5027416;28;20489;-70
2023/08/24 03:03:58;;;;;;;8.15;4.13;;;16.40;99.90;;;;;;5054929;28;20055;-71
2023/08/24 03:06:24;;;;;;;9.10;4.10;;;16.40;99.90;;;;;;5030638;28;20097;-70
2023/08/24 03:08:50;;;;;;;8.38;4.10;;;16.40;99.90;;;;;;5067228;28;20128;-67
2023/08/24 03:11:15;;;;;;;11.30;4.38;;;16.40;99.90;;;;;;5047972;28;20052;-68
2023/08/24 03:13:41;;;;;;;5.72;3.80;;;16.40;99.90;;;;;;5030716;28;20584;-68
2023/08/24 03:16:08;;;;;;;9.55;4.13;;;16.30;99.90;;;;;;5047123;28;20048;-68
2023/08/24 03:18:36;;;;;;;7.15;3.90;;;16.30;99.90;;;;;;5041084;28;20098;-68
2023/08/24 03:21:02;;;;;;;8.35;4.13;;;16.30;99.90;;;;;;5045195;28;20091;-67
2023/08/24 03:23:28;;;;;;;7.03;3.97;;;16.30;99.90;;;;;;5049649;28;20064;-68
2023/08/24 03:25:56;;;;;;;7.13;4.22;;;16.30;99.90;;;;;;5046368;28;20127;-68
2023/08/24 03:28:22;;;;;;;6.78;3.53;;;16.30;99.90;;;;;;5056021;28;20418;-68
2023/08/24 03:30:49;;;;;;;8.30;3.88;;;16.20;99.90;;;;;;5044280;28;20039;-68
2023/08/24 03:33:15;;;;;;;7.72;3.65;;;16.20;99.90;;;;;;5043445;28;20040;-68
2023/08/24 03:35:41;;;;;;;9.35;4.07;;;16.20;99.90;;;;;;5048257;28;20375;-68
2023/08/24 03:38:07;;;;;;;10.60;4.07;;;16.20;99.90;;;;;;5041086;28;20127;-68
2023/08/24 03:40:33;;;;;;;8.48;3.67;;;16.20;99.90;;;;;;5049101;28;20047;-67
2023/08/24 03:42:58;;;;;;;7.72;3.97;;;16.20;99.90;;;;;;5039036;28;20529;-68
2023/08/24 03:45:24;;;;;;;9.38;4.30;;;16.20;99.90;;;;;;5049924;28;20379;-68
2023/08/24 03:47:50;;;;;;;8.07;4.55;;;16.20;99.90;;;;;;5031616;28;20222;-68
2023/08/24 03:50:16;;;;;;;9.00;3.92;;;16.20;99.90;;;;;;5047078;28;20043;-68
2023/08/24 03:52:42;;;;;;;9.35;4.30;;;16.20;99.90;;;;;;5047289;28;20265;-68
2023/08/24 03:55:08;;;;;;;9.43;4.65;;;16.20;99.90;;;;;;5059812;28;20032;-67
2023/08/24 03:57:34;;;;;;;6.40;3.70;;;16.10;99.90;;;;;;5023455;28;20040;-68
2023/08/24 04:00:00;;;;;;;8.25;3.95;;;16.20;99.90;;;;;;5046902;28;20044;-68
2023/08/24 04:02:26;;;;;;;8.00;3.92;;;16.10;99.90;;;;;;5046965;28;20039;-67
2023/08/24 04:04:52;;;;;;;7.50;3.78;;;16.20;99.90;;;;;;5041674;28;20060;-68
2023/08/24 04:07:18;;;;;;;10.10;4.50;;;16.10;99.90;;;;;;5062501;28;20056;-68
2023/08/24 04:09:45;;;;;;;7.78;4.57;;;16.20;99.90;;;;;;5046663;28;20093;-68
2023/08/24 04:12:11;;;;;;;7.82;4.32;;;16.10;99.90;;;;;;5048847;28;20482;-68
2023/08/24 04:14:36;;;;;;;7.90;4.20;;;16.10;99.90;;;;;;5046885;28;20119;-68
2023/08/24 04:17:02;;;;;;;10.20;4.25;;;16.10;99.90;;;;;;5047447;28;20036;-68
2023/08/24 04:19:28;;;;;;;10.95;4.85;;;16.20;99.90;;;;;;5065377;28;20064;-68
2023/08/24 04:21:54;;;;;;;9.38;3.90;;;16.10;99.90;;;;;;5046261;28;20043;-69
2023/08/24 04:24:19;;;;;;;5.88;3.50;;;16.10;99.90;;;;;;5049700;28;20044;-71
2023/08/24 04:26:46;;;;;;;7.05;4.18;;;16.20;99.90;;;;;;5046783;28;20256;-68
2023/08/24 04:29:11;;;;;;;9.65;4.03;;;16.20;99.90;;;;;;5045675;28;20041;-68
2023/08/24 04:31:42;;;;;;;7.53;4.20;;;16.10;99.90;;;;;;5030515;28;20070;-68
2023/08/24 04:34:11;;;;;;;7.97;3.88;;;16.20;99.90;;;;;;5047653;28;20049;-67
2023/08/24 04:36:37;;;;;;;8.07;4.05;;;16.10;99.90;;;;;;5063111;28;20067;-68
2023/08/24 04:39:02;;;;;;;10.65;3.65;;;16.10;99.90;;;;;;5043186;28;20033;-68
2023/08/24 04:41:30;;;;;;;9.98;3.83;;;16.20;99.90;;;;;;5045369;28;20481;-68
2023/08/24 04:43:56;;;;;;;6.90;3.75;;;16.10;99.90;;;;;;5062358;28;20047;-68
2023/08/24 04:46:21;;;;;;;8.52;3.67;;;16.10;99.90;;;;;;5043570;28;20044;-72
2023/08/24 04:48:48;;;;;;;11.63;4.57;;;16.10;99.90;;;;;;5040515;28;20273;-70
2023/08/24 04:51:13;;;;;;;6.85;3.70;;;16.10;99.90;;;;;;5049452;28;20382;-71
2023/08/24 04:53:39;;;;;;;6.57;3.70;;;16.10;99.90;;;;;;5047722;28;20036;-72
2023/08/24 04:56:04;;;;;;;7.97;4.28;;;16.10;99.90;;;;;;5042722;28;20420;-71
2023/08/24 04:58:35;;;;;;;12.27;4.07;;;16.20;99.90;;;;;;5048599;28;20049;-70
2023/08/24 05:01:00;;;;;;;6.15;3.28;;;16.10;99.90;;;;;;5049490;28;20097;-71
2023/08/24 05:03:26;;;;;;;9.68;3.88;;;16.10;99.90;;;;;;5046551;28;20045;-71
2023/08/24 05:05:52;;;;;;;5.47;3.42;;;16.10;99.90;;;;;;5028542;28;20504;-70
2023/08/24 05:08:17;;;;;;;7.57;3.70;;;16.10;99.90;;;;;;5044176;28;20047;-73
2023/08/24 05:10:44;;;;;;;7.82;3.63;;;16.10;99.90;;;;;;5042296;28;20040;-70
2023/08/24 05:13:09;;;;;;;;;;;16.10;99.90;;;;;;5065573;28;20048;-68
2023/08/24 05:15:35;;;;;;;10.95;4.20;;;16.10;99.90;;;;;;5041705;28;19916;-72
2023/08/24 05:18:01;;;;;;;5.50;3.85;;;16.10;99.90;;;;;;5033497;28;20037;-72
2023/08/24 05:20:27;;;;;;;5.95;3.60;;;16.10;99.90;;;;;;5030992;28;20063;-69
2023/08/24 05:22:56;;;;;;;7.15;3.85;;;16.10;99.90;;;;;;5049658;28;20052;-74
2023/08/24 05:25:22;;;;;;;9.43;3.92;;;16.10;99.90;;;;;;5049832;28;20149;-73
2023/08/24 05:27:48;;;;;;;9.00;3.95;;;16.10;99.90;;;;;;5049017;28;20056;-68
2023/08/24 05:30:13;;;;;;;8.40;3.72;;;16.10;99.90;;;;;;5043156;28;20050;-73
2023/08/24 05:32:39;;;;;;;9.32;3.85;;;16.10;99.90;;;;;;5036916;28;20123;-68
2023/08/24 05:35:09;;;;;;;8.55;4.45;;;16.10;99.90;;;;;;5067926;28;20083;-69
2023/08/24 05:37:35;;;;;;;7.53;4.15;;;16.10;99.90;;;;;;5030990;28;20044;-69
2023/08/24 05:40:01;;;;;;;;;;;16.20;99.90;;;;;;5048998;28;20463;-68
2023/08/24 05:42:27;;;;;;;7.93;3.70;;;16.20;99.90;;;;;;5049197;28;19921;-69
2023/08/24 05:44:53;;;;;;;12.50;4.47;;;16.20;99.90;;;;;;5044987;28;20122;-69
2023/08/24 05:47:19;;;;;;;6.72;4.20;;;16.20;99.90;;;;;;5064094;28;20146;-72
2023/08/24 05:49:44;;;;;;;8.52;4.30;;;16.20;99.90;;;;;;5048539;28;20048;-68
2023/08/24 05:52:11;;;;;;;7.60;4.22;;;16.30;99.90;;;;;;5045952;28;20525;-69
2023/08/24 05:54:37;;;;;;;8.40;4.80;;;16.30;99.90;;;;;;5045766;28;20383;-73
2023/08/24 05:57:04;;;;;;;8.52;4.65;;;16.30;99.90;;;;;;5041178;28;20048;-69
2023/08/24 05:59:31;;;;;;;11.27;4.03;;;16.40;99.90;;;;;;5052222;28;20196;-69
2023/08/24 06:01:56;;;;;;;9.02;4.13;;;16.40;99.90;;;;;;5047923;28;20051;-69
2023/08/24 06:04:22;;;;;;;7.03;4.00;;;16.40;99.90;;;;;;5046931;28;20406;-70
2023/08/24 06:06:48;;;;;;;6.40;3.78;;;16.50;99.90;;;;;;5053263;28;20134;-71
2023/08/24 06:11:41;;;;;;;7.10;3.50;;;16.60;99.90;;;;;;5065343;28;20078;-72
2023/08/24 06:14:06;;;;;;;9.88;3.67;;;16.60;99.90;;;;;;5050568;28;20036;-71
2023/08/24 06:16:35;;;;;;;10.20;3.97;;;16.60;99.90;;;;;;5039855;28;20065;-72
2023/08/24 06:19:03;;;;;;;6.10;3.70;;;16.60;99.90;;;;;;5028137;28;20083;-73
2023/08/24 06:21:29;;;;;;;9.00;3.70;;;16.70;99.90;;;;;;5029035;28;20045;-73
2023/08/24 06:23:55;;;;;;;8.05;3.03;;;16.80;99.90;;;;;;5030661;28;20080;-71
2023/08/24 06:26:21;;;;;;;8.02;3.35;;;16.80;99.90;;;;;;5021612;28;20094;-71
2023/08/24 06:28:47;;;;;;;6.72;3.50;;;16.90;99.90;;;;;;5031981;28;20041;-71
2023/08/24 06:31:15;;;;;;;8.07;3.25;;;16.90;99.90;;;;;;5030244;28;20056;-71
2023/08/24 06:33:41;;;;;;;7.00;3.38;;;17.00;99.90;;;;;;5032633;28;20047;-71
2023/08/24 06:36:08;;;;;;;6.45;2.97;;;17.00;99.90;;;;;;5027285;28;20037;-71
2023/08/24 06:38:34;;;;;;;5.85;3.13;;;17.10;99.90;;;;;;5023774;28;20123;-73
2023/08/24 06:40:59;;;;;;;5.22;2.75;;;17.20;99.90;;;;;;5020456;28;20045;-71
2023/08/24 06:43:26;;;;;;;8.90;3.67;;;17.20;99.90;;;;;;5043807;28;20240;-72
2023/08/24 06:45:51;;;;;;;7.55;3.10;;;17.30;99.90;;;;;;5010881;28;20072;-71
2023/08/24 06:48:20;;;;;;;8.52;2.78;;;17.30;99.90;;;;;;5035730;28;20076;-71
2023/08/24 06:50:46;;;;;;;5.18;2.55;;;17.40;99.90;;;;;;5027268;28;20571;-71
2023/08/24 06:53:11;;;;;;;4.40;2.25;;;17.50;99.90;;;;;;5024810;28;20045;-71
2023/08/24 06:55:37;;;;;;;5.28;2.95;;;17.50;99.90;;;;;;5046010;28;20042;-71
2023/08/24 06:58:06;;;;;;;8.07;3.85;;;17.60;99.90;;;;;;5038321;28;20045;-71
2023/08/24 07:00:33;;;;;;;10.23;3.10;;;17.60;99.90;;;;;;5024625;28;20529;-71
2023/08/24 07:02:59;;;;;;;6.60;2.63;;;17.70;99.90;;;;;;5024219;28;20152;-72
2023/08/24 07:05:25;;;;;;;;;;;17.80;99.90;;;;;;5045577;28;20052;-71
2023/08/24 07:07:50;;;;;;;5.13;2.30;;;17.80;99.90;;;;;;5047199;28;20259;-71
2023/08/24 07:10:17;;;;;;;6.03;2.47;;;17.90;99.90;;;;;;5043541;28;20045;-71
2023/08/24 07:12:44;;;;;;;6.55;2.55;;;18.00;99.90;;;;;;5037144;28;20045;-71
2023/08/24 07:15:11;;;;;;;5.78;1.85;;;18.10;99.90;;;;;;5041178;28;20037;-71
2023/08/24 07:17:37;;;;;;;4.50;1.90;;;18.10;99.90;;;;;;5026566;28;20052;-71
2023/08/24 07:20:08;;;;;;;3.88;1.38;;;18.20;99.90;;;;;;5045318;28;20041;-71
2023/08/24 07:22:34;;;;;;;3.33;2.10;;;18.20;99.90;;;;;;5044307;28;20453;-71
2023/08/24 07:25:00;;;;;;;;;;;18.30;99.90;;;;;;5027648;28;20563;-70
2023/08/24 07:27:26;;;;;;;5.75;2.10;;;18.40;99.90;;;;;;5032174;28;20274;-70
2023/08/24 07:29:51;;;;;;;10.35;2.92;;;18.40;99.90;;;;;;5044150;28;20048;-66
2023/08/24 07:32:17;;;;;;;6.25;2.65;;;18.50;99.90;;;;;;5023040;28;20054;-67
2023/08/24 07:34:43;;;;;;;6.50;2.85;;;18.60;99.90;;;;;;5036846;28;20037;-67
2023/08/24 07:37:08;;;;;;;6.38;2.35;;;18.70;99.90;;;;;;5030246;28;20041;-67
2023/08/24 07:39:34;;;;;;;8.75;2.92;;;18.80;99.90;;;;;;5041358;28;20041;-68
2023/08/24 07:42:00;;;;;;;5.82;2.97;;;18.80;99.90;;;;;;5050854;28;20041;-67
2023/08/24 07:44:26;;;;;;;9.10;3.70;;;18.90;99.90;;;;;;5045860;28;20036;-67
2023/08/24 07:46:52;;;;;;;9.75;4.03;;;19.00;99.90;;;;;;5045896;28;20403;-67
2023/08/24 07:49:17;;;;;;;5.85;3.25;;;19.10;99.90;;;;;;5027939;28;20099;-67
2023/08/24 07:51:43;;;;;;;6.72;3.53;;;19.20;99.90;;;;;;5046578;28;20124;-67
2023/08/24 07:54:09;;;;;;;;;;;19.20;99.90;;;;;;5044192;28;20077;-68
2023/08/24 07:56:36;;;;;;;8.35;3.50;;;19.30;99.90;;;;;;5043617;28;19986;-67
2023/08/24 07:59:01;;;;;;;7.20;3.83;;;19.40;99.90;;;;;;5025517;28;20479;-67
2023/08/24 08:01:27;;;;;;;10.05;3.75;;;19.50;99.90;;;;;;5026297;28;20096;-67
2023/08/24 08:03:53;;;;;;;8.95;4.13;;;19.50;99.90;;;;;;5045472;28;20102;-68
2023/08/24 08:06:18;;;;;;;8.48;4.05;;;19.60;99.90;;;;;;5039996;28;20407;-67
2023/08/24 08:08:46;;;;;;;6.53;3.53;;;19.70;99.90;;;;;;5049068;28;20040;-68
2023/08/24 08:11:12;;;;;;;9.30;4.22;;;19.70;99.90;;;;;;5030281;28;20509;-67
2023/08/24 08:13:37;;;;;;;9.70;4.53;;;19.80;99.90;;;;;;5026853;28;20041;-67
2023/08/24 08:16:07;;;;;;;10.13;3.45;;;19.90;99.90;;;;;;5046800;28;20044;-67
2023/08/24 08:18:34;;;;;;;7.70;4.22;;;19.90;99.90;;;;;;5042266;28;20048;-67
2023/08/24 08:21:00;;;;;;;9.43;4.15;;;20.00;99.90;;;;;;5026194;28;20048;-68
2023/08/24 08:23:25;;;;;;;5.32;3.42;;;20.10;99.90;;;;;;5048725;28;20429;-67
2023/08/24 08:25:51;;;;;;;8.80;3.70;;;20.20;99.90;;;;;;5026974;28;20052;-68
2023/08/24 08:28:17;;;;;;;7.25;3.92;;;20.30;99.90;;;;;;5027268;28;20057;-68
2023/08/24 08:30:44;;;;;;;7.22;3.88;;;20.40;99.90;;;;;;5026475;28;20044;-68
2023/08/24 08:33:10;;;;;;;8.43;3.42;;;20.50;99.90;;;;;;5029571;28;20478;-67
2023/08/24 08:35:36;;;;;;;9.15;3.83;;;20.60;99.90;;;;;;5046132;28;20073;-67
2023/08/24 08:38:01;;;;;;;11.57;3.90;;;20.70;99.90;;;;;;5040627;28;20051;-68
2023/08/24 08:40:30;;;;;;;8.07;3.75;;;20.80;99.90;;;;;;5045828;28;20542;-68
2023/08/24 08:42:59;;;;;;;10.60;3.60;;;20.90;99.90;;;;;;5023929;28;20102;-67
2023/08/24 08:45:28;;;;;;;5.93;3.40;;;21.00;99.90;;;;;;5045015;28;20037;-68
2023/08/24 08:48:01;;;;;;;7.32;3.80;;;21.10;99.90;;;;;;5028791;28;20514;-67
2023/08/24 08:50:28;;;;;;;9.55;2.80;;;21.20;99.90;;;;;;5027550;28;20080;-68
2023/08/24 08:52:55;;;;;;;6.20;3.38;;;21.30;99.90;;;;;;5023297;28;20430;-67
2023/08/24 08:55:21;;;;;;;8.38;3.25;;;21.40;99.90;;;;;;5027042;28;20071;-67
2023/08/24 08:57:48;;;;;;;;;;;21.50;99.90;;;;;;5028640;28;20513;-67
2023/08/24 09:00:18;;;;;;;6.43;3.55;;;21.50;99.90;;;;;;5045170;28;19971;-67
2023/08/24 09:02:45;;;;;;;4.97;2.85;;;21.50;99.90;;;;;;5023778;28;20391;-68
2023/08/24 09:05:12;;;;;;;8.38;3.22;;;21.50;99.90;;;;;;5026496;28;20099;-68
2023/08/24 09:07:40;;;;;;;11.55;3.20;;;21.50;99.90;;;;;;5025006;28;20041;-68
2023/08/24 09:10:07;;;;;;;7.78;2.97;;;21.50;99.90;;;;;;5048287;28;20045;-68
2023/08/24 09:12:33;;;;;;;8.45;3.55;;;21.50;99.90;;;;;;5013192;28;20041;-68
2023/08/24 09:14:59;;;;;;;5.72;2.60;;;21.50;99.90;;;;;;5024780;28;21264;-68
2023/08/24 09:17:25;;;;;;;;;;;21.50;99.90;;;;;;5023424;28;20056;-67
2023/08/24 09:19:53;;;;;;;6.75;3.25;;;21.50;99.90;;;;;;5048281;28;19916;-68
2023/08/24 09:22:19;;;;;;;8.13;3.47;;;21.50;99.90;;;;;;5032952;28;20432;-68
2023/08/24 09:24:45;;;;;;;;;;;21.50;99.90;;;;;;5044617;28;20150;-67
2023/08/24 09:27:18;;;;;;;4.15;2.92;;;21.50;99.90;;;;;;5042035;28;20389;-68
2023/08/24 09:29:51;;;;;;;7.03;3.10;;;21.50;99.90;;;;;;5029466;28;20487;-68
2023/08/24 09:32:27;;;;;;;9.38;3.80;;;21.50;99.90;;;;;;5023202;28;20128;-68
2023/08/24 09:34:53;;;;;;;;;;;21.50;99.90;;;;;;5040562;28;20049;-69
2023/08/24 09:37:19;;;;;;;9.20;3.83;;;21.50;99.90;;;;;;5041530;28;20504;-68
2023/08/24 09:39:45;;;;;;;;;;;21.40;99.90;;;;;;5027965;28;20117;-68
2023/08/24 09:42:12;;;;;;;4.93;3.03;;;21.40;99.90;;;;;;5030928;28;19920;-68
2023/08/24 09:44:37;;;;;;;12.02;4.07;;;21.40;99.90;;;;;;5045816;28;20270;-68
2023/08/24 09:47:12;;;;;;;;;;;21.40;99.90;;;;;;5043470;28;20376;-68
2023/08/24 09:49:38;;;;;;;7.13;3.15;;;21.30;99.90;;;;;;5025342;28;20015;-67
2023/08/24 09:52:07;;;;;;;;;;;21.30;99.90;;;;;;5036339;28;20149;-68
2023/08/24 09:54:37;;;;;;;9.80;3.80;;;21.30;99.90;;;;;;5024963;28;19917;-68
2023/08/24 09:57:04;;;;;;;5.45;3.47;;;21.30;99.90;;;;;;5025569;28;20042;-68
2023/08/24 09:59:32;;;;;;;6.78;3.65;;;21.30;99.90;;;;;;5013192;28;20052;-68
2023/08/24 10:02:01;;;;;;;9.52;4.07;;;21.30;99.90;;;;;;5018009;28;20083;-68
2023/08/24 10:04:32;;;;;;;9.95;3.70;;;21.30;99.90;;;;;;5047819;28;20458;-68
2023/08/24 10:07:20;;;;;;;7.82;3.78;;;21.30;99.90;;;;;;5048245;28;20041;-68
2023/08/24 10:10:03;;;;;;;10.85;4.30;;;21.30;99.90;;;;;;5028967;28;20048;-68
2023/08/24 10:12:31;;;;;;;7.22;3.90;;;21.30;99.90;;;;;;5028331;28;20119;-67
2023/08/24 10:15:03;;;;;;;7.70;3.95;;;21.20;99.90;;;;;;5049143;28;20052;-68
2023/08/24 10:17:33;;;;;;;5.30;3.60;;;21.20;99.90;;;;;;5047223;28;20067;-67
2023/08/24 10:20:01;;;;;;;5.60;3.60;;;21.20;99.90;;;;;;5050707;28;20048;-68
2023/08/24 10:22:30;;;;;;;6.65;3.83;;;21.20;99.90;;;;;;5048519;28;20525;-67
2023/08/24 10:24:56;;;;;;;9.18;3.60;;;21.10;99.90;;;;;;5028769;28;20075;-68
2023/08/24 10:27:27;;;;;;;7.05;3.38;;;21.10;99.90;;;;;;5032894;28;20098;-67
2023/08/24 10:29:53;;;;;;;7.85;3.90;;;21.10;99.90;;;;;;5049758;28;20148;-67
2023/08/24 10:32:22;;;;;;;;;;;21.00;99.90;;;;;;5033093;28;20136;-67
2023/08/24 10:34:48;;;;;;;7.45;4.30;;;21.00;99.90;;;;;;5014545;28;19924;-67
2023/08/24 10:37:14;;;;;;;;;;;21.00;99.90;;;;;;5013464;28;20040;-68
2023/08/24 10:39:46;;;;;;;6.13;4.45;;;21.00;99.90;;;;;;5043569;28;20390;-68
2023/08/24 10:42:13;;;;;;;8.48;4.32;;;20.90;99.90;;;;;;5040652;28;20041;-67
2023/08/24 10:44:43;;;;;;;9.40;5.20;;;21.00;99.90;;;;;;5047179;28;20036;-68
2023/08/24 10:47:18;;;;;;;10.27;4.97;;;21.00;99.90;;;;;;5032404;28;20043;-68
2023/08/24 10:49:56;;;;;;;12.68;5.88;;;20.90;99.90;;;;;;5024050;28;20051;-67
2023/08/24 10:52:22;;;;;;;9.93;5.63;;;20.90;99.90;;;;;;5046143;28;20091;-67
2023/08/24 10:54:50;;;;;;;9.43;6.28;;;20.90;99.90;;;;;;5046103;28;20441;-68
2023/08/24 10:57:20;;;;;;;10.82;6.00;;;20.90;99.90;;;;;;5041429;28;20270;-68
2023/08/24 10:59:56;;;;;;;9.05;5.72;;;20.90;99.90;;;;;;5045716;28;20045;-68
2023/08/24 11:02:23;;;;;;;9.35;5.75;;;20.80;99.90;;;;;;5048364;28;20125;-68
2023/08/24 11:05:05;;;;;;;8.63;5.65;;;20.80;99.90;;;;;;5046086;28;20040;-67
2023/08/24 11:07:31;;;;;;;9.55;5.78;;;20.80;99.90;;;;;;5025318;28;20052;-67
2023/08/24 11:09:57;;;;;;;;;;;20.80;99.90;;;;;;5026293;28;20045;-68
2023/08/24 11:12:22;;;;;;;14.50;6.90;;;20.70;99.90;;;;;;5026057;28;19917;-68
2023/08/24 11:14:51;;;;;;;11.80;6.15;;;20.70;99.90;;;;;;5044581;28;20510;-67
2023/08/24 11:17:23;;;;;;;9.38;6.22;;;20.70;99.90;;;;;;5046543;28;20040;-67
2023/08/24 11:19:50;;;;;;;10.48;6.80;;;20.70;99.90;;;;;;5026159;28;20503;-67
2023/08/24 11:22:19;;;;;;;10.40;6.40;;;20.70;99.90;;;;;;5030879;28;20203;-68
2023/08/24 11:24:45;;;;;;;10.23;6.55;;;20.60;99.90;;;;;;5042363;28;20093;-68
2023/08/24 11:27:11;;;;;;;12.75;6.55;;;20.70;99.90;;;;;;5045939;28;20067;-68
2023/08/24 11:29:36;;;;;;;;;;;20.70;99.90;;;;;;5042229;28;20048;-67
2023/08/24 11:32:02;;;;;;;10.50;6.55;;;20.70;99.90;;;;;;5025397;28;19920;-67
2023/08/24 11:34:29;;;;;;;;;;;20.70;99.90;;;;;;5044290;28;20392;-67
2023/08/24 11:36:54;;;;;;;11.67;6.47;;;20.70;99.90;;;;;;5041177;28;20009;-67
2023/08/24 11:39:23;;;;;;;13.45;7.75;;;20.70;99.90;;;;;;5030266;28;20103;-68
2023/08/24 11:42:05;;;;;;;12.13;6.75;;;20.80;99.90;;;;;;5028345;28;20048;-67
2023/08/24 11:44:47;;;;;;;11.55;6.22;;;20.80;99.90;;;;;;5032745;28;20045;-68
2023/08/24 11:47:13;;;;;;;12.60;6.60;;;20.80;99.90;;;;;;5039450;28;20509;-68
2023/08/24 11:49:39;;;;;;;;;;;20.80;99.90;;;;;;5029815;28;20041;-67
2023/08/24 11:52:05;;;;;;;11.13;6.68;;;20.80;99.90;;;;;;5050601;28;19917;-68
2023/08/24 11:54:33;;;;;;;;;;;20.80;99.90;;;;;;5046626;28;20036;-67
2023/08/24 11:56:59;;;;;;;9.95;6.30;;;20.90;99.90;;;;;;5033033;28;19976;-68
2023/08/24 11:59:25;;;;;;;;;;;20.80;99.90;;;;;;5025018;28;20064;-68
2023/08/24 12:01:52;;;;;;;11.48;7.35;;;20.90;99.90;;;;;;5029869;28;19924;-68
2023/08/24 12:04:18;;;;;;;15.65;9.00;;;20.90;99.90;;;;;;5030591;28;20131;-67
2023/08/24 12:06:44;;;;;;;15.15;8.70;;;20.90;99.90;;;;;;5023671;28;20425;-68
2023/08/24 12:09:10;;;;;;;;;;;20.90;99.90;;;;;;5027664;28;20041;-67
2023/08/24 12:11:39;;;;;;;11.50;7.25;;;20.90;99.90;;;;;;5046647;28;19928;-68
2023/08/24 12:14:06;;;;;;;16.33;9.10;;;20.90;99.90;;;;;;5029866;28;20063;-68
2023/08/24 12:16:33;;;;;;;13.23;7.78;;;20.90;99.90;;;;;;5045570;28;20144;-67
2023/08/24 12:19:02;;;;;;;13.60;7.80;;;21.00;99.90;;;;;;5041985;28;20041;-68
2023/08/24 12:21:29;;;;;;;13.23;8.60;;;21.00;99.90;;;;;;5027681;28;20072;-67
2023/08/24 12:24:06;;;;;;;13.20;8.52;;;21.10;99.90;;;;;;5045554;28;20041;-67
2023/08/24 12:26:32;;;;;;;15.68;8.65;;;21.10;99.90;;;;;;5013441;28;20075;-68
2023/08/24 12:29:06;;;;;;;15.55;9.27;;;21.10;99.90;;;;;;5022014;28;20380;-67
2023/08/24 12:31:33;;;;;;;17.48;8.45;;;21.10;99.90;;;;;;5043633;28;20041;-68
2023/08/24 12:34:03;;;;;;;17.85;11.75;;;21.20;99.90;;;;;;5027868;28;20036;-68
2023/08/24 12:36:33;;;;;;;13.95;9.35;;;21.20;99.90;;;;;;5047105;28;20036;-68
2023/08/24 12:38:59;;;;;;;13.50;9.05;;;21.20;99.90;;;;;;5042373;28;20079;-67
2023/08/24 12:41:25;;;;;;;;;;;21.20;99.90;;;;;;5044189;28;20037;-67
2023/08/24 12:43:54;;;;;;;15.10;10.02;;;21.20;99.90;;;;;;5010280;28;19921;-67
2023/08/24 12:46:20;;;;;;;14.60;9.20;;;21.20;99.90;;;;;;5042485;28;20045;-68
2023/08/24 12:48:45;;;;;;;;;;;21.20;99.90;;;;;;5026946;28;20048;-67
2023/08/24 12:51:12;;;;;;;14.52;9.00;;;21.20;99.90;;;;;;5023100;28;19916;-68
2023/08/24 12:53:37;;;;;;;16.23;9.43;;;21.20;99.90;;;;;;5017750;28;20053;-67